sensor_id;sensor_type;location;lat;lon;timestamp;P1;durP1;ratioP1;P2;durP2;ratioP2
25479;SDS011;13393;49.378;8.686;2023-12-20T00:00:48;11.75;;;7.97;;
25479;SDS011;13393;49.378;8.686;2023-12-20T00:03:16;10.45;;;7.88;;
25479;SDS011;13393;49.378;8.686;2023-12-20T00:05:43;10.90;;;7.88;;
25479;SDS011;13393;49.378;8.686;2023-12-20T00:08:09;12.18;;;7.78;;
25479;SDS011;13393;49.378;8.686;2023-12-20T00:10:36;11.85;;;8.55;;
25479;SDS011;13393;49.378;8.686;2023-12-20T00:13:05;9.55;;;7.10;;
25479;SDS011;13393;49.378;8.686;2023-12-20T00:15:32;10.20;;;7.72;;
25479;SDS011;13393;49.378;8.686;2023-12-20T00:17:58;12.50;;;8.15;;
25479;SDS011;13393;49.378;8.686;2023-12-20T00:20:25;11.05;;;7.90;;
25479;SDS011;13393;49.378;8.686;2023-12-20T00:22:52;9.45;;;7.63;;
25479;SDS011;13393;49.378;8.686;2023-12-20T00:25:20;11.32;;;8.15;;
25479;SDS011;13393;49.378;8.686;2023-12-20T00:27:46;10.50;;;7.82;;
25479;SDS011;13393;49.378;8.686;2023-12-20T00:30:12;10.82;;;8.25;;
25479;SDS011;13393;49.378;8.686;2023-12-20T00:32:39;12.45;;;8.45;;
25479;SDS011;13393;49.378;8.686;2023-12-20T00:35:11;16.70;;;10.57;;
25479;SDS011;13393;49.378;8.686;2023-12-20T00:37:40;18.55;;;10.32;;
25479;SDS011;13393;49.378;8.686;2023-12-20T00:40:07;17.90;;;10.00;;
25479;SDS011;13393;49.378;8.686;2023-12-20T00:42:34;13.80;;;8.32;;
25479;SDS011;13393;49.378;8.686;2023-12-20T00:45:02;12.85;;;8.30;;
25479;SDS011;13393;49.378;8.686;2023-12-20T00:47:29;12.85;;;8.07;;
25479;SDS011;13393;49.378;8.686;2023-12-20T00:49:57;11.60;;;8.40;;
25479;SDS011;13393;49.378;8.686;2023-12-20T00:52:23;13.07;;;8.05;;
25479;SDS011;13393;49.378;8.686;2023-12-20T00:54:51;9.88;;;7.60;;
25479;SDS011;13393;49.378;8.686;2023-12-20T00:57:18;10.32;;;7.63;;
25479;SDS011;13393;49.378;8.686;2023-12-20T00:59:44;11.48;;;8.43;;
25479;SDS011;13393;49.378;8.686;2023-12-20T01:02:12;12.32;;;8.00;;
25479;SDS011;13393;49.378;8.686;2023-12-20T01:04:39;10.93;;;7.68;;
25479;SDS011;13393;49.378;8.686;2023-12-20T01:07:06;9.80;;;7.28;;
25479;SDS011;13393;49.378;8.686;2023-12-20T01:09:32;9.32;;;7.10;;
25479;SDS011;13393;49.378;8.686;2023-12-20T01:12:00;10.35;;;7.53;;
25479;SDS011;13393;49.378;8.686;2023-12-20T01:14:27;9.30;;;6.97;;
25479;SDS011;13393;49.378;8.686;2023-12-20T01:16:55;8.88;;;6.80;;
25479;SDS011;13393;49.378;8.686;2023-12-20T01:19:24;9.60;;;6.60;;
25479;SDS011;13393;49.378;8.686;2023-12-20T01:21:52;8.52;;;6.63;;
25479;SDS011;13393;49.378;8.686;2023-12-20T01:24:18;8.95;;;7.03;;
25479;SDS011;13393;49.378;8.686;2023-12-20T01:26:45;7.47;;;6.22;;
25479;SDS011;13393;49.378;8.686;2023-12-20T01:29:13;7.95;;;6.47;;
25479;SDS011;13393;49.378;8.686;2023-12-20T01:31:41;7.85;;;6.68;;
25479;SDS011;13393;49.378;8.686;2023-12-20T01:34:07;10.40;;;6.95;;
25479;SDS011;13393;49.378;8.686;2023-12-20T01:36:34;8.48;;;6.05;;
25479;SDS011;13393;49.378;8.686;2023-12-20T01:39:00;8.18;;;6.50;;
25479;SDS011;13393;49.378;8.686;2023-12-20T01:41:27;6.90;;;5.70;;
25479;SDS011;13393;49.378;8.686;2023-12-20T01:43:55;9.00;;;6.47;;
25479;SDS011;13393;49.378;8.686;2023-12-20T01:46:23;8.63;;;6.63;;
25479;SDS011;13393;49.378;8.686;2023-12-20T01:48:50;8.10;;;6.28;;
25479;SDS011;13393;49.378;8.686;2023-12-20T01:51:16;7.35;;;6.05;;
25479;SDS011;13393;49.378;8.686;2023-12-20T01:53:43;9.23;;;6.70;;
25479;SDS011;13393;49.378;8.686;2023-12-20T01:56:10;8.35;;;6.15;;
25479;SDS011;13393;49.378;8.686;2023-12-20T01:58:37;7.07;;;6.13;;
25479;SDS011;13393;49.378;8.686;2023-12-20T02:01:05;7.00;;;6.13;;
25479;SDS011;13393;49.378;8.686;2023-12-20T02:03:35;9.52;;;6.72;;
25479;SDS011;13393;49.378;8.686;2023-12-20T02:06:02;7.95;;;6.95;;
25479;SDS011;13393;49.378;8.686;2023-12-20T02:08:30;9.82;;;7.25;;
25479;SDS011;13393;49.378;8.686;2023-12-20T02:10:56;10.93;;;7.25;;
25479;SDS011;13393;49.378;8.686;2023-12-20T02:13:23;8.35;;;7.25;;
25479;SDS011;13393;49.378;8.686;2023-12-20T02:15:50;8.95;;;6.78;;
25479;SDS011;13393;49.378;8.686;2023-12-20T02:18:17;9.43;;;7.32;;
25479;SDS011;13393;49.378;8.686;2023-12-20T02:20:45;10.48;;;7.07;;
25479;SDS011;13393;49.378;8.686;2023-12-20T02:23:12;8.52;;;7.13;;
25479;SDS011;13393;49.378;8.686;2023-12-20T02:25:39;10.30;;;7.97;;
25479;SDS011;13393;49.378;8.686;2023-12-20T02:28:05;8.63;;;7.22;;
25479;SDS011;13393;49.378;8.686;2023-12-20T02:30:32;10.32;;;6.60;;
25479;SDS011;13393;49.378;8.686;2023-12-20T02:32:59;8.85;;;7.45;;
25479;SDS011;13393;49.378;8.686;2023-12-20T02:35:25;6.90;;;6.20;;
25479;SDS011;13393;49.378;8.686;2023-12-20T02:37:52;7.30;;;6.57;;
25479;SDS011;13393;49.378;8.686;2023-12-20T02:40:20;8.82;;;7.45;;
25479;SDS011;13393;49.378;8.686;2023-12-20T02:42:48;7.80;;;6.80;;
25479;SDS011;13393;49.378;8.686;2023-12-20T02:45:15;9.85;;;6.47;;
25479;SDS011;13393;49.378;8.686;2023-12-20T02:47:41;7.78;;;6.97;;
25479;SDS011;13393;49.378;8.686;2023-12-20T02:50:08;7.13;;;6.43;;
25479;SDS011;13393;49.378;8.686;2023-12-20T02:52:35;7.88;;;6.35;;
25479;SDS011;13393;49.378;8.686;2023-12-20T02:55:02;10.23;;;6.57;;
25479;SDS011;13393;49.378;8.686;2023-12-20T02:57:30;8.57;;;6.18;;
25479;SDS011;13393;49.378;8.686;2023-12-20T02:59:57;7.22;;;5.47;;
25479;SDS011;13393;49.378;8.686;2023-12-20T03:02:26;7.15;;;6.18;;
25479;SDS011;13393;49.378;8.686;2023-12-20T03:04:54;8.27;;;7.25;;
25479;SDS011;13393;49.378;8.686;2023-12-20T03:07:21;7.65;;;6.53;;
25479;SDS011;13393;49.378;8.686;2023-12-20T03:09:48;10.20;;;6.70;;
25479;SDS011;13393;49.378;8.686;2023-12-20T03:12:15;7.05;;;5.97;;
25479;SDS011;13393;49.378;8.686;2023-12-20T03:14:44;6.93;;;5.95;;
25479;SDS011;13393;49.378;8.686;2023-12-20T03:17:11;8.57;;;6.53;;
25479;SDS011;13393;49.378;8.686;2023-12-20T03:19:38;7.28;;;6.22;;
25479;SDS011;13393;49.378;8.686;2023-12-20T03:22:05;7.35;;;5.80;;
25479;SDS011;13393;49.378;8.686;2023-12-20T03:24:31;7.05;;;5.85;;
25479;SDS011;13393;49.378;8.686;2023-12-20T03:26:59;7.63;;;5.88;;
25479;SDS011;13393;49.378;8.686;2023-12-20T03:29:26;6.15;;;5.55;;
25479;SDS011;13393;49.378;8.686;2023-12-20T03:31:54;6.63;;;5.93;;
25479;SDS011;13393;49.378;8.686;2023-12-20T03:34:20;8.13;;;5.63;;
25479;SDS011;13393;49.378;8.686;2023-12-20T03:36:47;6.20;;;5.60;;
25479;SDS011;13393;49.378;8.686;2023-12-20T03:39:13;5.60;;;5.10;;
25479;SDS011;13393;49.378;8.686;2023-12-20T03:41:40;7.30;;;5.68;;
25479;SDS011;13393;49.378;8.686;2023-12-20T03:44:06;6.35;;;5.25;;
25479;SDS011;13393;49.378;8.686;2023-12-20T03:46:33;6.00;;;4.97;;
25479;SDS011;13393;49.378;8.686;2023-12-20T03:49:01;5.25;;;4.75;;
25479;SDS011;13393;49.378;8.686;2023-12-20T03:51:27;4.70;;;4.30;;
25479;SDS011;13393;49.378;8.686;2023-12-20T03:53:54;5.97;;;4.50;;
25479;SDS011;13393;49.378;8.686;2023-12-20T03:56:20;5.65;;;4.70;;
25479;SDS011;13393;49.378;8.686;2023-12-20T03:58:47;5.43;;;4.55;;
25479;SDS011;13393;49.378;8.686;2023-12-20T04:01:13;4.95;;;4.38;;
25479;SDS011;13393;49.378;8.686;2023-12-20T04:03:42;4.78;;;3.90;;
25479;SDS011;13393;49.378;8.686;2023-12-20T04:06:10;5.95;;;4.75;;
25479;SDS011;13393;49.378;8.686;2023-12-20T04:08:36;6.18;;;3.97;;
25479;SDS011;13393;49.378;8.686;2023-12-20T04:11:03;6.15;;;4.30;;
25479;SDS011;13393;49.378;8.686;2023-12-20T04:13:29;4.45;;;4.03;;
25479;SDS011;13393;49.378;8.686;2023-12-20T04:15:56;4.47;;;4.05;;
25479;SDS011;13393;49.378;8.686;2023-12-20T04:18:24;4.85;;;4.20;;
25479;SDS011;13393;49.378;8.686;2023-12-20T04:20:53;4.38;;;3.97;;
25479;SDS011;13393;49.378;8.686;2023-12-20T04:23:21;3.95;;;3.63;;
25479;SDS011;13393;49.378;8.686;2023-12-20T04:25:47;6.38;;;4.25;;
25479;SDS011;13393;49.378;8.686;2023-12-20T04:28:15;3.53;;;3.20;;
25479;SDS011;13393;49.378;8.686;2023-12-20T04:30:42;3.67;;;3.38;;
25479;SDS011;13393;49.378;8.686;2023-12-20T04:33:08;6.47;;;4.13;;
25479;SDS011;13393;49.378;8.686;2023-12-20T04:35:35;4.85;;;3.80;;
25479;SDS011;13393;49.378;8.686;2023-12-20T04:38:05;4.32;;;3.83;;
25479;SDS011;13393;49.378;8.686;2023-12-20T04:40:52;4.38;;;3.97;;
25479;SDS011;13393;49.378;8.686;2023-12-20T04:43:19;4.25;;;3.85;;
25479;SDS011;13393;49.378;8.686;2023-12-20T04:45:46;3.75;;;3.45;;
25479;SDS011;13393;49.378;8.686;2023-12-20T04:48:12;3.85;;;3.45;;
25479;SDS011;13393;49.378;8.686;2023-12-20T04:50:39;3.50;;;3.20;;
25479;SDS011;13393;49.378;8.686;2023-12-20T04:53:06;4.28;;;3.20;;
25479;SDS011;13393;49.378;8.686;2023-12-20T04:55:32;3.55;;;3.25;;
25479;SDS011;13393;49.378;8.686;2023-12-20T04:58:00;4.55;;;3.42;;
25479;SDS011;13393;49.378;8.686;2023-12-20T05:00:27;4.00;;;3.60;;
25479;SDS011;13393;49.378;8.686;2023-12-20T05:02:56;3.95;;;3.38;;
25479;SDS011;13393;49.378;8.686;2023-12-20T05:05:23;4.60;;;3.30;;
25479;SDS011;13393;49.378;8.686;2023-12-20T05:07:49;5.80;;;3.75;;
25479;SDS011;13393;49.378;8.686;2023-12-20T05:10:16;4.47;;;3.63;;
25479;SDS011;13393;49.378;8.686;2023-12-20T05:12:42;5.88;;;3.95;;
25479;SDS011;13393;49.378;8.686;2023-12-20T05:15:11;4.18;;;3.67;;
25479;SDS011;13393;49.378;8.686;2023-12-20T05:17:38;3.50;;;3.17;;
25479;SDS011;13393;49.378;8.686;2023-12-20T05:20:05;3.70;;;3.40;;
25479;SDS011;13393;49.378;8.686;2023-12-20T05:22:32;4.43;;;3.45;;
25479;SDS011;13393;49.378;8.686;2023-12-20T05:24:58;4.65;;;3.33;;
25479;SDS011;13393;49.378;8.686;2023-12-20T05:27:25;3.58;;;3.28;;
25479;SDS011;13393;49.378;8.686;2023-12-20T05:29:51;3.78;;;3.28;;
25479;SDS011;13393;49.378;8.686;2023-12-20T05:32:19;3.40;;;3.10;;
25479;SDS011;13393;49.378;8.686;2023-12-20T05:34:46;3.75;;;3.33;;
25479;SDS011;13393;49.378;8.686;2023-12-20T05:37:12;4.13;;;3.72;;
25479;SDS011;13393;49.378;8.686;2023-12-20T05:39:39;4.90;;;3.90;;
25479;SDS011;13393;49.378;8.686;2023-12-20T05:42:05;4.50;;;3.67;;
25479;SDS011;13393;49.378;8.686;2023-12-20T05:44:32;3.60;;;3.17;;
25479;SDS011;13393;49.378;8.686;2023-12-20T05:47:01;3.80;;;3.47;;
25479;SDS011;13393;49.378;8.686;2023-12-20T05:49:29;4.40;;;3.80;;
25479;SDS011;13393;49.378;8.686;2023-12-20T05:51:56;5.10;;;3.80;;
25479;SDS011;13393;49.378;8.686;2023-12-20T05:54:23;3.78;;;3.40;;
25479;SDS011;13393;49.378;8.686;2023-12-20T05:56:50;3.70;;;3.40;;
25479;SDS011;13393;49.378;8.686;2023-12-20T05:59:16;5.15;;;4.10;;
25479;SDS011;13393;49.378;8.686;2023-12-20T06:01:44;3.65;;;3.35;;
25479;SDS011;13393;49.378;8.686;2023-12-20T06:04:11;4.50;;;3.40;;
25479;SDS011;13393;49.378;8.686;2023-12-20T06:06:41;3.50;;;3.20;;
25479;SDS011;13393;49.378;8.686;2023-12-20T06:09:10;5.75;;;3.60;;
25479;SDS011;13393;49.378;8.686;2023-12-20T06:11:37;3.72;;;3.33;;
25479;SDS011;13393;49.378;8.686;2023-12-20T06:14:03;3.75;;;3.30;;
25479;SDS011;13393;49.378;8.686;2023-12-20T06:16:30;3.83;;;3.22;;
25479;SDS011;13393;49.378;8.686;2023-12-20T06:18:57;6.32;;;4.20;;
25479;SDS011;13393;49.378;8.686;2023-12-20T06:21:23;5.03;;;4.30;;
25479;SDS011;13393;49.378;8.686;2023-12-20T06:23:52;5.13;;;3.75;;
25479;SDS011;13393;49.378;8.686;2023-12-20T06:26:18;4.47;;;4.05;;
25479;SDS011;13393;49.378;8.686;2023-12-20T06:28:44;4.50;;;4.07;;
25479;SDS011;13393;49.378;8.686;2023-12-20T06:31:11;6.13;;;4.65;;
25479;SDS011;13393;49.378;8.686;2023-12-20T06:33:38;4.72;;;3.83;;
25479;SDS011;13393;49.378;8.686;2023-12-20T06:36:07;5.80;;;4.30;;
25479;SDS011;13393;49.378;8.686;2023-12-20T06:38:33;4.85;;;4.18;;
25479;SDS011;13393;49.378;8.686;2023-12-20T06:41:02;7.30;;;4.47;;
25479;SDS011;13393;49.378;8.686;2023-12-20T06:43:28;5.05;;;4.13;;
25479;SDS011;13393;49.378;8.686;2023-12-20T06:45:56;4.47;;;4.03;;
25479;SDS011;13393;49.378;8.686;2023-12-20T06:48:22;4.93;;;4.47;;
25479;SDS011;13393;49.378;8.686;2023-12-20T06:50:50;5.75;;;4.28;;
25479;SDS011;13393;49.378;8.686;2023-12-20T06:53:16;6.00;;;4.30;;
25479;SDS011;13393;49.378;8.686;2023-12-20T06:55:43;5.25;;;3.78;;
25479;SDS011;13393;49.378;8.686;2023-12-20T06:58:11;5.65;;;4.35;;
25479;SDS011;13393;49.378;8.686;2023-12-20T07:00:39;4.50;;;3.90;;
25479;SDS011;13393;49.378;8.686;2023-12-20T07:03:05;5.50;;;4.28;;
25479;SDS011;13393;49.378;8.686;2023-12-20T07:05:32;5.45;;;4.85;;
25479;SDS011;13393;49.378;8.686;2023-12-20T07:07:58;4.70;;;4.13;;
25479;SDS011;13393;49.378;8.686;2023-12-20T07:10:25;4.38;;;3.97;;
25479;SDS011;13393;49.378;8.686;2023-12-20T07:12:51;4.78;;;4.38;;
25479;SDS011;13393;49.378;8.686;2023-12-20T07:15:28;4.93;;;3.92;;
25479;SDS011;13393;49.378;8.686;2023-12-20T07:17:56;4.68;;;3.92;;
25479;SDS011;13393;49.378;8.686;2023-12-20T07:20:25;4.90;;;4.40;;
25479;SDS011;13393;49.378;8.686;2023-12-20T07:22:52;4.65;;;4.15;;
25479;SDS011;13393;49.378;8.686;2023-12-20T07:25:19;4.88;;;3.88;;
25479;SDS011;13393;49.378;8.686;2023-12-20T07:27:45;3.97;;;3.58;;
25479;SDS011;13393;49.378;8.686;2023-12-20T07:30:13;4.18;;;3.78;;
25479;SDS011;13393;49.378;8.686;2023-12-20T07:32:42;6.53;;;3.58;;
25479;SDS011;13393;49.378;8.686;2023-12-20T07:35:08;4.88;;;3.60;;
25479;SDS011;13393;49.378;8.686;2023-12-20T07:37:36;4.60;;;3.40;;
25479;SDS011;13393;49.378;8.686;2023-12-20T07:40:03;4.65;;;3.67;;
25479;SDS011;13393;49.378;8.686;2023-12-20T07:42:30;5.93;;;4.20;;
25479;SDS011;13393;49.378;8.686;2023-12-20T07:44:56;6.53;;;4.20;;
25479;SDS011;13393;49.378;8.686;2023-12-20T07:47:22;4.88;;;3.92;;
25479;SDS011;13393;49.378;8.686;2023-12-20T07:49:51;5.63;;;4.25;;
25479;SDS011;13393;49.378;8.686;2023-12-20T07:52:18;8.02;;;4.90;;
25479;SDS011;13393;49.378;8.686;2023-12-20T07:54:44;16.77;;;6.60;;
25479;SDS011;13393;49.378;8.686;2023-12-20T07:57:11;10.57;;;5.90;;
25479;SDS011;13393;49.378;8.686;2023-12-20T07:59:38;12.25;;;6.97;;
25479;SDS011;13393;49.378;8.686;2023-12-20T08:02:04;10.45;;;6.95;;
25479;SDS011;13393;49.378;8.686;2023-12-20T08:04:31;11.23;;;7.03;;
25479;SDS011;13393;49.378;8.686;2023-12-20T08:06:59;15.75;;;7.50;;
25479;SDS011;13393;49.378;8.686;2023-12-20T08:09:26;14.95;;;7.00;;
25479;SDS011;13393;49.378;8.686;2023-12-20T08:11:57;12.93;;;7.78;;
25479;SDS011;13393;49.378;8.686;2023-12-20T08:14:25;16.52;;;8.90;;
25479;SDS011;13393;49.378;8.686;2023-12-20T08:16:51;14.60;;;8.77;;
25479;SDS011;13393;49.378;8.686;2023-12-20T08:19:18;14.02;;;8.43;;
25479;SDS011;13393;49.378;8.686;2023-12-20T08:21:44;16.75;;;8.60;;
25479;SDS011;13393;49.378;8.686;2023-12-20T08:24:15;12.88;;;7.65;;
25479;SDS011;13393;49.378;8.686;2023-12-20T08:26:42;12.55;;;7.30;;
25479;SDS011;13393;49.378;8.686;2023-12-20T08:29:09;14.35;;;7.25;;
25479;SDS011;13393;49.378;8.686;2023-12-20T08:31:35;8.55;;;6.15;;
25479;SDS011;13393;49.378;8.686;2023-12-20T08:34:02;7.05;;;5.57;;
25479;SDS011;13393;49.378;8.686;2023-12-20T08:36:28;5.97;;;4.82;;
25479;SDS011;13393;49.378;8.686;2023-12-20T08:38:55;8.68;;;5.22;;
25479;SDS011;13393;49.378;8.686;2023-12-20T08:41:30;5.85;;;4.93;;
25479;SDS011;13393;49.378;8.686;2023-12-20T08:43:56;6.70;;;4.35;;
25479;SDS011;13393;49.378;8.686;2023-12-20T08:46:22;4.65;;;4.25;;
25479;SDS011;13393;49.378;8.686;2023-12-20T08:48:49;6.65;;;4.50;;
25479;SDS011;13393;49.378;8.686;2023-12-20T08:51:15;5.03;;;4.25;;
25479;SDS011;13393;49.378;8.686;2023-12-20T08:53:42;4.78;;;4.22;;
25479;SDS011;13393;49.378;8.686;2023-12-20T08:56:10;4.32;;;3.92;;
25479;SDS011;13393;49.378;8.686;2023-12-20T08:58:39;3.70;;;3.40;;
25479;SDS011;13393;49.378;8.686;2023-12-20T09:01:07;5.18;;;4.40;;
25479;SDS011;13393;49.378;8.686;2023-12-20T09:03:34;4.45;;;3.83;;
25479;SDS011;13393;49.378;8.686;2023-12-20T09:06:02;5.00;;;3.80;;
25479;SDS011;13393;49.378;8.686;2023-12-20T09:08:29;4.50;;;4.10;;
25479;SDS011;13393;49.378;8.686;2023-12-20T09:10:55;4.45;;;3.92;;
25479;SDS011;13393;49.378;8.686;2023-12-20T09:13:22;6.43;;;3.92;;
25479;SDS011;13393;49.378;8.686;2023-12-20T09:15:54;7.63;;;3.30;;
25479;SDS011;13393;49.378;8.686;2023-12-20T09:18:21;4.30;;;2.72;;
25479;SDS011;13393;49.378;8.686;2023-12-20T09:20:47;5.88;;;3.13;;
25479;SDS011;13393;49.378;8.686;2023-12-20T09:23:15;5.03;;;2.63;;
25479;SDS011;13393;49.378;8.686;2023-12-20T09:25:42;4.85;;;2.30;;
25479;SDS011;13393;49.378;8.686;2023-12-20T09:28:08;4.05;;;2.35;;
25479;SDS011;13393;49.378;8.686;2023-12-20T09:30:35;3.42;;;2.42;;
25479;SDS011;13393;49.378;8.686;2023-12-20T09:33:06;7.38;;;2.20;;
25479;SDS011;13393;49.378;8.686;2023-12-20T09:35:33;4.10;;;2.05;;
25479;SDS011;13393;49.378;8.686;2023-12-20T09:37:59;5.05;;;2.42;;
25479;SDS011;13393;49.378;8.686;2023-12-20T09:40:26;3.17;;;1.90;;
25479;SDS011;13393;49.378;8.686;2023-12-20T09:42:55;5.25;;;2.38;;
25479;SDS011;13393;49.378;8.686;2023-12-20T09:45:22;7.65;;;2.28;;
25479;SDS011;13393;49.378;8.686;2023-12-20T09:47:49;4.18;;;1.98;;
25479;SDS011;13393;49.378;8.686;2023-12-20T09:50:18;4.82;;;2.13;;
25479;SDS011;13393;49.378;8.686;2023-12-20T09:52:44;4.50;;;2.40;;
25479;SDS011;13393;49.378;8.686;2023-12-20T09:55:12;6.35;;;2.50;;
25479;SDS011;13393;49.378;8.686;2023-12-20T09:57:40;5.93;;;1.70;;
25479;SDS011;13393;49.378;8.686;2023-12-20T10:00:07;8.50;;;2.25;;
25479;SDS011;13393;49.378;8.686;2023-12-20T10:02:34;11.43;;;3.05;;
25479;SDS011;13393;49.378;8.686;2023-12-20T10:05:03;6.60;;;1.90;;
25479;SDS011;13393;49.378;8.686;2023-12-20T10:07:35;3.33;;;1.83;;
25479;SDS011;13393;49.378;8.686;2023-12-20T10:10:02;4.40;;;2.35;;
25479;SDS011;13393;49.378;8.686;2023-12-20T10:12:29;5.18;;;2.13;;
25479;SDS011;13393;49.378;8.686;2023-12-20T10:14:57;7.55;;;2.30;;
25479;SDS011;13393;49.378;8.686;2023-12-20T10:17:24;9.93;;;3.22;;
25479;SDS011;13393;49.378;8.686;2023-12-20T10:19:54;15.73;;;3.90;;
25479;SDS011;13393;49.378;8.686;2023-12-20T10:22:23;15.40;;;3.83;;
25479;SDS011;13393;49.378;8.686;2023-12-20T10:24:51;11.85;;;4.10;;
25479;SDS011;13393;49.378;8.686;2023-12-20T10:27:17;18.40;;;5.28;;
25479;SDS011;13393;49.378;8.686;2023-12-20T10:29:45;12.23;;;4.82;;
25479;SDS011;13393;49.378;8.686;2023-12-20T10:32:21;16.70;;;5.38;;
25479;SDS011;13393;49.378;8.686;2023-12-20T10:34:50;15.93;;;5.95;;
25479;SDS011;13393;49.378;8.686;2023-12-20T10:37:17;12.63;;;4.72;;
25479;SDS011;13393;49.378;8.686;2023-12-20T10:39:43;12.48;;;4.60;;
25479;SDS011;13393;49.378;8.686;2023-12-20T10:42:12;14.45;;;5.57;;
25479;SDS011;13393;49.378;8.686;2023-12-20T10:44:38;7.75;;;3.03;;
25479;SDS011;13393;49.378;8.686;2023-12-20T10:47:05;10.15;;;2.67;;
25479;SDS011;13393;49.378;8.686;2023-12-20T10:49:33;13.18;;;3.08;;
25479;SDS011;13393;49.378;8.686;2023-12-20T10:52:01;7.22;;;2.92;;
25479;SDS011;13393;49.378;8.686;2023-12-20T10:54:31;9.55;;;2.92;;
25479;SDS011;13393;49.378;8.686;2023-12-20T10:56:59;8.52;;;2.22;;
25479;SDS011;13393;49.378;8.686;2023-12-20T10:59:32;5.97;;;2.40;;
25479;SDS011;13393;49.378;8.686;2023-12-20T11:02:00;10.10;;;2.67;;
25479;SDS011;13393;49.378;8.686;2023-12-20T11:04:31;8.02;;;2.58;;
25479;SDS011;13393;49.378;8.686;2023-12-20T11:07:03;7.15;;;2.28;;
25479;SDS011;13393;49.378;8.686;2023-12-20T11:09:31;4.78;;;1.90;;
25479;SDS011;13393;49.378;8.686;2023-12-20T11:12:02;6.15;;;2.20;;
25479;SDS011;13393;49.378;8.686;2023-12-20T11:14:34;7.07;;;2.53;;
25479;SDS011;13393;49.378;8.686;2023-12-20T11:17:07;4.90;;;2.45;;
25479;SDS011;13393;49.378;8.686;2023-12-20T11:19:38;9.43;;;2.38;;
25479;SDS011;13393;49.378;8.686;2023-12-20T11:22:10;13.85;;;4.60;;
25479;SDS011;13393;49.378;8.686;2023-12-20T11:24:38;16.27;;;5.07;;
25479;SDS011;13393;49.378;8.686;2023-12-20T11:27:10;13.63;;;3.88;;
25479;SDS011;13393;49.378;8.686;2023-12-20T11:29:38;10.35;;;3.45;;
25479;SDS011;13393;49.378;8.686;2023-12-20T11:34:48;8.30;;;2.38;;
25479;SDS011;13393;49.378;8.686;2023-12-20T11:37:14;9.57;;;2.33;;
25479;SDS011;13393;49.378;8.686;2023-12-20T11:39:42;9.00;;;2.35;;
25479;SDS011;13393;49.378;8.686;2023-12-20T11:42:09;4.90;;;2.00;;
25479;SDS011;13393;49.378;8.686;2023-12-20T11:44:36;6.22;;;1.73;;
25479;SDS011;13393;49.378;8.686;2023-12-20T11:47:05;5.10;;;2.15;;
25479;SDS011;13393;49.378;8.686;2023-12-20T11:49:33;7.10;;;2.00;;
25479;SDS011;13393;49.378;8.686;2023-12-20T11:52:00;5.88;;;2.15;;
25479;SDS011;13393;49.378;8.686;2023-12-20T11:54:26;7.13;;;2.35;;
25479;SDS011;13393;49.378;8.686;2023-12-20T11:56:55;5.57;;;1.92;;
25479;SDS011;13393;49.378;8.686;2023-12-20T11:59:22;5.25;;;2.35;;
25479;SDS011;13393;49.378;8.686;2023-12-20T12:01:50;5.75;;;2.45;;
25479;SDS011;13393;49.378;8.686;2023-12-20T12:04:19;5.07;;;2.20;;
25479;SDS011;13393;49.378;8.686;2023-12-20T12:06:44;10.15;;;2.88;;
25479;SDS011;13393;49.378;8.686;2023-12-20T12:09:12;7.72;;;2.65;;
25479;SDS011;13393;49.378;8.686;2023-12-20T12:11:38;7.90;;;2.67;;
25479;SDS011;13393;49.378;8.686;2023-12-20T12:14:06;7.82;;;3.33;;
25479;SDS011;13393;49.378;8.686;2023-12-20T12:16:33;11.95;;;3.45;;
25479;SDS011;13393;49.378;8.686;2023-12-20T12:19:00;12.57;;;4.25;;
25479;SDS011;13393;49.378;8.686;2023-12-20T12:21:28;10.45;;;3.55;;
25479;SDS011;13393;49.378;8.686;2023-12-20T12:23:54;11.32;;;3.65;;
25479;SDS011;13393;49.378;8.686;2023-12-20T12:26:31;9.77;;;3.60;;
25479;SDS011;13393;49.378;8.686;2023-12-20T12:28:58;8.63;;;2.90;;
25479;SDS011;13393;49.378;8.686;2023-12-20T12:31:25;7.95;;;2.80;;
25479;SDS011;13393;49.378;8.686;2023-12-20T12:33:52;9.52;;;3.22;;
25479;SDS011;13393;49.378;8.686;2023-12-20T12:36:18;7.63;;;2.53;;
25479;SDS011;13393;49.378;8.686;2023-12-20T12:38:49;8.23;;;2.65;;
25479;SDS011;13393;49.378;8.686;2023-12-20T12:41:16;6.30;;;2.70;;
25479;SDS011;13393;49.378;8.686;2023-12-20T12:43:43;8.57;;;2.70;;
25479;SDS011;13393;49.378;8.686;2023-12-20T12:46:12;7.97;;;2.92;;
25479;SDS011;13393;49.378;8.686;2023-12-20T12:48:40;7.30;;;2.60;;
25479;SDS011;13393;49.378;8.686;2023-12-20T12:51:07;9.45;;;3.08;;
25479;SDS011;13393;49.378;8.686;2023-12-20T12:53:38;6.72;;;2.50;;
25479;SDS011;13393;49.378;8.686;2023-12-20T12:56:06;6.22;;;2.30;;
25479;SDS011;13393;49.378;8.686;2023-12-20T12:58:34;9.88;;;3.10;;
25479;SDS011;13393;49.378;8.686;2023-12-20T13:01:01;7.68;;;2.47;;
25479;SDS011;13393;49.378;8.686;2023-12-20T13:03:28;9.40;;;2.63;;
25479;SDS011;13393;49.378;8.686;2023-12-20T13:05:55;9.82;;;3.13;;
25479;SDS011;13393;49.378;8.686;2023-12-20T13:08:22;8.68;;;3.05;;
25479;SDS011;13393;49.378;8.686;2023-12-20T13:10:48;6.25;;;2.50;;
25479;SDS011;13393;49.378;8.686;2023-12-20T13:13:17;11.38;;;3.22;;
25479;SDS011;13393;49.378;8.686;2023-12-20T13:15:44;7.03;;;2.80;;
25479;SDS011;13393;49.378;8.686;2023-12-20T13:18:15;9.60;;;3.10;;
25479;SDS011;13393;49.378;8.686;2023-12-20T13:20:42;9.02;;;2.50;;
25479;SDS011;13393;49.378;8.686;2023-12-20T13:23:08;8.52;;;2.58;;
25479;SDS011;13393;49.378;8.686;2023-12-20T13:25:35;9.38;;;2.38;;
25479;SDS011;13393;49.378;8.686;2023-12-20T13:28:04;6.30;;;2.13;;
25479;SDS011;13393;49.378;8.686;2023-12-20T13:30:32;9.70;;;2.60;;
25479;SDS011;13393;49.378;8.686;2023-12-20T13:33:00;7.78;;;2.33;;
25479;SDS011;13393;49.378;8.686;2023-12-20T13:35:28;9.27;;;2.90;;
25479;SDS011;13393;49.378;8.686;2023-12-20T13:37:55;8.50;;;2.50;;
25479;SDS011;13393;49.378;8.686;2023-12-20T13:40:21;9.35;;;3.78;;
25479;SDS011;13393;49.378;8.686;2023-12-20T13:42:48;9.57;;;2.80;;
25479;SDS011;13393;49.378;8.686;2023-12-20T13:45:15;8.43;;;3.20;;
25479;SDS011;13393;49.378;8.686;2023-12-20T13:47:43;7.35;;;2.83;;
25479;SDS011;13393;49.378;8.686;2023-12-20T13:50:13;10.88;;;3.22;;
25479;SDS011;13393;49.378;8.686;2023-12-20T13:52:40;12.63;;;3.00;;
25479;SDS011;13393;49.378;8.686;2023-12-20T13:55:07;10.95;;;2.88;;
25479;SDS011;13393;49.378;8.686;2023-12-20T13:57:35;7.30;;;2.80;;
25479;SDS011;13393;49.378;8.686;2023-12-20T14:00:14;7.38;;;2.33;;
25479;SDS011;13393;49.378;8.686;2023-12-20T14:02:43;8.85;;;2.38;;
25479;SDS011;13393;49.378;8.686;2023-12-20T14:05:09;12.73;;;5.55;;
25479;SDS011;13393;49.378;8.686;2023-12-20T14:07:40;8.30;;;3.20;;
25479;SDS011;13393;49.378;8.686;2023-12-20T14:10:10;10.15;;;3.17;;
25479;SDS011;13393;49.378;8.686;2023-12-20T14:12:38;5.32;;;2.70;;
25479;SDS011;13393;49.378;8.686;2023-12-20T14:15:06;7.13;;;2.88;;
25479;SDS011;13393;49.378;8.686;2023-12-20T14:17:35;6.25;;;2.72;;
25479;SDS011;13393;49.378;8.686;2023-12-20T14:20:04;7.40;;;3.00;;
25479;SDS011;13393;49.378;8.686;2023-12-20T14:22:32;10.65;;;3.30;;
25479;SDS011;13393;49.378;8.686;2023-12-20T14:25:01;9.88;;;2.92;;
25479;SDS011;13393;49.378;8.686;2023-12-20T14:27:28;6.85;;;3.42;;
25479;SDS011;13393;49.378;8.686;2023-12-20T14:29:55;11.13;;;2.85;;
25479;SDS011;13393;49.378;8.686;2023-12-20T14:32:23;7.47;;;2.38;;
25479;SDS011;13393;49.378;8.686;2023-12-20T14:34:51;9.10;;;2.53;;
25479;SDS011;13393;49.378;8.686;2023-12-20T14:37:21;6.82;;;2.85;;
25479;SDS011;13393;49.378;8.686;2023-12-20T14:39:48;10.45;;;3.33;;
25479;SDS011;13393;49.378;8.686;2023-12-20T14:42:15;9.45;;;2.63;;
25479;SDS011;13393;49.378;8.686;2023-12-20T14:44:41;9.13;;;2.47;;
25479;SDS011;13393;49.378;8.686;2023-12-20T14:47:07;11.57;;;2.90;;
25479;SDS011;13393;49.378;8.686;2023-12-20T14:49:34;9.65;;;2.75;;